Time;durP1;ratioP1;P1;durP2;ratioP2;P2;SDS_P1;SDS_P2;PMS_P1;PMS_P2;Temp;Humidity;BMP_temperature;BMP_pressure;BME280_temperature;BME280_humidity;BME280_pressure;Samples;Min_cycle;Max_cycle;Signal;HPM_P1;HPM_P2
2022/11/18 00:01:33;;;;;;;1.42;0.90;;;;;;;;;;4975807;28;20120;-67
2022/11/18 00:04:00;;;;;;;1.95;1.35;;;;;;;;;;4975663;28;20070;-68
2022/11/18 00:06:28;;;;;;;2.47;1.40;;;;;;;;;;4993046;28;20097;-68
2022/11/18 00:08:54;;;;;;;4.82;1.27;;;;;;;;;;4965336;28;20517;-67
2022/11/18 00:14:22;;;;;;;1.98;1.23;;;;;;;;;;4993157;28;20101;-67
2022/11/18 00:16:51;;;;;;;2.00;1.50;;;;;;;;;;4962035;28;20465;-67
2022/11/18 00:19:19;;;;;;;0.98;0.98;;;;;;;;;;4959371;28;20096;-67
2022/11/18 00:21:46;;;;;;;1.30;1.20;;;;;;;;;;4975233;28;20073;-67
2022/11/18 00:24:13;;;;;;;2.58;1.27;;;;;;;;;;4975129;28;20054;-68
2022/11/18 00:26:40;;;;;;;2.20;1.40;;;;;;;;;;4992418;28;20142;-67
2022/11/18 00:29:08;;;;;;;4.03;1.40;;;;;;;;;;4992167;28;20054;-67
2022/11/18 00:31:35;;;;;;;2.47;1.42;;;;;;;;;;4990550;28;20046;-67
2022/11/18 00:34:02;;;;;;;1.83;1.40;;;;;;;;;;4994687;28;20394;-67
2022/11/18 00:36:29;;;;;;;2.75;1.35;;;;;;;;;;4978671;28;20208;-67
2022/11/18 00:38:55;;;;;;;1.25;1.15;;;;;;;;;;5011242;28;20092;-66
2022/11/18 00:41:22;;;;;;;1.58;1.10;;;;;;;;;;5011178;28;20428;-66
2022/11/18 00:43:49;;;;;;;1.25;1.10;;;;;;;;;;4974990;28;20589;-66
2022/11/18 00:46:16;;;;;;;1.20;0.90;;;;;;;;;;4959133;28;20051;-66
2022/11/18 00:48:42;;;;;;;1.33;0.85;;;;;;;;;;4958609;28;20054;-66
2022/11/18 00:51:10;;;;;;;0.90;0.75;;;;;;;;;;4975216;28;20046;-66
2022/11/18 00:53:37;;;;;;;1.30;1.00;;;;;;;;;;4992292;28;20050;-66
2022/11/18 00:56:04;;;;;;;1.63;1.02;;;;;;;;;;4992230;28;20054;-66
2022/11/18 00:58:31;;;;;;;2.00;1.00;;;;;;;;;;4974737;28;20130;-68
2022/11/18 01:00:57;;;;;;;1.80;0.90;;;;;;;;;;4969135;28;20092;-66
2022/11/18 01:03:24;;;;;;;2.22;1.00;;;;;;;;;;4994402;28;20073;-66
2022/11/18 01:05:51;;;;;;;2.38;1.15;;;;;;;;;;4994248;28;20050;-66
2022/11/18 01:08:19;;;;;;;3.05;0.95;;;;;;;;;;4977530;28;20417;-67
2022/11/18 01:10:47;;;;;;;1.48;1.30;;;;;;;;;;4994525;28;20057;-67
2022/11/18 01:13:19;;;;;;;2.75;1.00;;;;;;;;;;4994348;28;20493;-66
2022/11/18 01:15:56;;;;;;;1.02;0.80;;;;;;;;;;4995057;28;20049;-66
2022/11/18 01:18:25;;;;;;;1.83;1.10;;;;;;;;;;4993780;28;20104;-66
2022/11/18 01:20:52;;;;;;;2.65;1.10;;;;;;;;;;4988737;28;20074;-66
2022/11/18 01:23:19;;;;;;;2.17;1.60;;;;;;;;;;4978925;28;20129;-66
2022/11/18 01:25:47;;;;;;;1.40;1.05;;;;;;;;;;4995930;28;20069;-67
2022/11/18 01:28:15;;;;;;;0.90;0.80;;;;;;;;;;4978138;28;20083;-67
2022/11/18 01:30:48;;;;;;;1.48;0.82;;;;;;;;;;4987051;28;20054;-67
2022/11/18 01:33:15;;;;;;;2.67;1.17;;;;;;;;;;4997593;28;20493;-67
2022/11/18 01:35:42;;;;;;;2.97;1.08;;;;;;;;;;5015468;28;20073;-66
2022/11/18 01:38:10;;;;;;;1.25;0.80;;;;;;;;;;4997220;28;20074;-66
2022/11/18 01:40:37;;;;;;;0.73;0.70;;;;;;;;;;4991814;28;20057;-67
2022/11/18 01:43:12;;;;;;;2.25;0.90;;;;;;;;;;4978057;28;20050;-67
2022/11/18 01:45:40;;;;;;;1.35;0.80;;;;;;;;;;4978491;28;20089;-67
2022/11/18 01:48:14;;;;;;;2.42;0.70;;;;;;;;;;4994825;28;20128;-67
2022/11/18 01:50:43;;;;;;;3.20;0.93;;;;;;;;;;4995543;28;20094;-67
2022/11/18 01:53:22;;;;;;;1.20;1.00;;;;;;;;;;4978109;28;20153;-66
2022/11/18 01:55:49;;;;;;;4.28;0.70;;;;;;;;;;4962386;28;20050;-67
2022/11/18 01:58:32;;;;;;;2.78;0.70;;;;;;;;;;4977775;28;20105;-67
2022/11/18 02:00:59;;;;;;;1.00;0.63;;;;;;;;;;4970502;28;20053;-67
2022/11/18 02:03:26;;;;;;;1.13;0.75;;;;;;;;;;4971608;28;20084;-67
2022/11/18 02:05:52;;;;;;;0.70;0.70;;;;;;;;;;4977923;28;20532;-67
2022/11/18 02:08:19;;;;;;;3.42;0.88;;;;;;;;;;4977074;28;20054;-67
2022/11/18 02:10:45;;;;;;;2.78;0.68;;;;;;;;;;4962757;28;20109;-67
2022/11/18 02:13:12;;;;;;;1.90;0.63;;;;;;;;;;4977527;28;20101;-66
2022/11/18 02:15:59;;;;;;;2.50;0.90;;;;;;;;;;4977997;28;20081;-67
2022/11/18 02:18:42;;;;;;;2.53;1.20;;;;;;;;;;4979189;28;20078;-66
2022/11/18 02:21:38;;;;;;;1.65;0.90;;;;;;;;;;4946349;28;20050;-67
2022/11/18 02:24:46;;;;;;;2.45;0.75;;;;;;;;;;4980222;28;20074;-66
2022/11/18 02:27:16;;;;;;;2.13;1.08;;;;;;;;;;4983853;28;20136;-67
2022/11/18 02:29:54;;;;;;;4.03;1.60;;;;;;;;;;4994134;28;20577;-66
2022/11/18 02:32:22;;;;;;;2.72;1.00;;;;;;;;;;4962313;28;20053;-67
2022/11/18 02:35:23;;;;;;;1.15;0.70;;;;;;;;;;4977596;28;20457;-67
2022/11/18 02:38:12;;;;;;;1.38;1.02;;;;;;;;;;4947727;28;20069;-67
2022/11/18 02:40:43;;;;;;;2.90;0.82;;;;;;;;;;4967316;28;20104;-66
2022/11/18 02:43:23;;;;;;;1.75;0.65;;;;;;;;;;4961600;28;20482;-67
2022/11/18 02:45:51;;;;;;;0.63;0.50;;;;;;;;;;4961894;28;20493;-66
2022/11/18 02:48:18;;;;;;;1.02;0.50;;;;;;;;;;4961195;28;20090;-66
2022/11/18 02:50:45;;;;;;;1.48;0.70;;;;;;;;;;4961164;28;20050;-67
2022/11/18 02:53:12;;;;;;;2.00;0.60;;;;;;;;;;4961106;28;20414;-67
2022/11/18 02:55:39;;;;;;;2.30;0.63;;;;;;;;;;4976974;28;20088;-66
2022/11/18 02:58:06;;;;;;;2.50;0.70;;;;;;;;;;4960475;28;20054;-66
2022/11/18 03:00:32;;;;;;;1.90;0.70;;;;;;;;;;4960770;28;20081;-67
2022/11/18 03:02:59;;;;;;;2.67;0.75;;;;;;;;;;4960716;28;20077;-67
2022/11/18 03:05:36;;;;;;;2.55;0.77;;;;;;;;;;4994299;28;20174;-66
2022/11/18 03:08:07;;;;;;;1.65;0.60;;;;;;;;;;4979395;28;20058;-67
2022/11/18 03:10:39;;;;;;;3.17;0.80;;;;;;;;;;4971116;28;20128;-67
2022/11/18 03:13:17;;;;;;;1.55;0.55;;;;;;;;;;4976738;28;20077;-67
2022/11/18 03:15:51;;;;;;;0.82;0.40;;;;;;;;;;4983668;28;20080;-67
2022/11/18 03:18:29;;;;;;;0.90;0.50;;;;;;;;;;4976806;28;20050;-67
2022/11/18 03:21:07;;;;;;;1.50;0.60;;;;;;;;;;4960696;28;20082;-67
2022/11/18 03:23:42;;;;;;;1.02;0.50;;;;;;;;;;4976689;28;20078;-67
2022/11/18 03:26:11;;;;;;;0.65;0.40;;;;;;;;;;4961129;28;20054;-66
2022/11/18 03:28:58;;;;;;;0.95;0.40;;;;;;;;;;4960040;28;20053;-66
2022/11/18 03:31:45;;;;;;;1.25;0.50;;;;;;;;;;4960935;28;20100;-66
2022/11/18 03:34:27;;;;;;;2.83;0.63;;;;;;;;;;4960250;28;20524;-67
2022/11/18 03:36:56;;;;;;;1.88;0.40;;;;;;;;;;4960510;28;20058;-67
2022/11/18 03:39:27;;;;;;;3.43;0.43;;;;;;;;;;4960939;28;20054;-67
2022/11/18 03:41:56;;;;;;;1.75;0.30;;;;;;;;;;4978344;28;20321;-67
2022/11/18 03:44:27;;;;;;;0.73;0.40;;;;;;;;;;4995360;28;20061;-67
2022/11/18 03:47:14;;;;;;;6.70;0.50;;;;;;;;;;4979848;28;20092;-67
2022/11/18 03:50:03;;;;;;;3.25;0.60;;;;;;;;;;4994922;28;20078;-67
2022/11/18 03:52:31;;;;;;;2.88;0.47;;;;;;;;;;4964654;28;20553;-68
2022/11/18 03:54:59;;;;;;;1.52;0.47;;;;;;;;;;4979488;28;20542;-67
2022/11/18 03:57:43;;;;;;;1.85;0.45;;;;;;;;;;4995075;28;20115;-66
2022/11/18 04:00:12;;;;;;;2.75;0.47;;;;;;;;;;4994974;28;20313;-67
2022/11/18 04:02:38;;;;;;;1.30;0.35;;;;;;;;;;4979319;28;20464;-67
2022/11/18 04:05:07;;;;;;;2.08;0.70;;;;;;;;;;4978960;28;20089;-67
2022/11/18 04:07:41;;;;;;;2.08;0.50;;;;;;;;;;4979253;28;20085;-67
2022/11/18 04:10:26;;;;;;;2.75;0.52;;;;;;;;;;4995269;28;20100;-68
2022/11/18 04:13:09;;;;;;;2.67;0.50;;;;;;;;;;4975489;28;20197;-67
2022/11/18 04:15:36;;;;;;;2.45;0.73;;;;;;;;;;4975602;28;20086;-67
2022/11/18 04:18:03;;;;;;;0.93;0.50;;;;;;;;;;4959102;28;20050;-67
2022/11/18 04:20:31;;;;;;;1.85;0.57;;;;;;;;;;4975592;28;20050;-67
2022/11/18 04:22:57;;;;;;;1.80;0.50;;;;;;;;;;4992964;28;20481;-67
2022/11/18 04:25:24;;;;;;;1.30;0.45;;;;;;;;;;4992847;28;20453;-67
2022/11/18 04:27:51;;;;;;;1.08;0.70;;;;;;;;;;5000150;28;20481;-67
2022/11/18 04:30:18;;;;;;;1.63;0.40;;;;;;;;;;5011963;28;20049;-67
2022/11/18 04:32:45;;;;;;;0.90;0.45;;;;;;;;;;4995602;23;20061;-71
2022/11/18 04:35:11;;;;;;;0.40;0.40;;;;;;;;;;4992924;28;20074;-72
2022/11/18 04:37:38;;;;;;;1.98;0.93;;;;;;;;;;5007790;28;20050;-71
2022/11/18 04:40:05;;;;;;;0.45;0.30;;;;;;;;;;4993499;28;20162;-70
2022/11/18 04:42:32;;;;;;;0.57;0.25;;;;;;;;;;4995677;28;20097;-71
2022/11/18 04:44:58;;;;;;;1.25;0.40;;;;;;;;;;4996385;28;20078;-71
2022/11/18 04:47:25;;;;;;;0.60;0.25;;;;;;;;;;4994912;28;20082;-71
2022/11/18 04:49:51;;;;;;;0.25;0.20;;;;;;;;;;4976702;28;20054;-71
2022/11/18 04:52:18;;;;;;;0.43;0.25;;;;;;;;;;4992612;28;20074;-71
2022/11/18 04:54:45;;;;;;;1.38;0.45;;;;;;;;;;4992097;28;20057;-71
2022/11/18 04:57:12;;;;;;;1.02;0.40;;;;;;;;;;4992519;28;20085;-71
2022/11/18 04:59:38;;;;;;;3.92;1.10;;;;;;;;;;4991811;28;20116;-71
2022/11/18 05:02:05;;;;;;;3.50;1.15;;;;;;;;;;4993032;28;20092;-69
2022/11/18 05:04:33;;;;;;;3.30;1.30;;;;;;;;;;4991534;28;20520;-70
2022/11/18 05:07:01;;;;;;;2.10;1.10;;;;;;;;;;4992621;28;20077;-70
2022/11/18 05:09:28;;;;;;;2.50;1.30;;;;;;;;;;4991897;28;20101;-71
2022/11/18 05:14:43;;;;;;;3.60;1.65;;;;;;;;;;4992405;28;20089;-71
2022/11/18 05:17:15;;;;;;;4.35;1.42;;;;;;;;;;4992348;28;20138;-72
2022/11/18 05:19:42;;;;;;;2.28;0.70;;;;;;;;;;4991943;28;20078;-69
2022/11/18 05:22:09;;;;;;;0.43;0.30;;;;;;;;;;5016634;28;20062;-68
2022/11/18 05:24:35;;;;;;;0.57;0.47;;;;;;;;;;4997259;28;20046;-71
2022/11/18 05:27:02;;;;;;;0.63;0.38;;;;;;;;;;4992492;28;20086;-70
2022/11/18 05:29:28;;;;;;;0.47;0.25;;;;;;;;;;4992016;28;20129;-71
2022/11/18 05:31:55;;;;;;;1.15;0.38;;;;;;;;;;4993307;28;20509;-71
2022/11/18 05:34:22;;;;;;;1.33;0.50;;;;;;;;;;4996340;28;20054;-71
2022/11/18 05:36:48;;;;;;;0.30;0.20;;;;;;;;;;4987077;28;20526;-71
2022/11/18 05:39:15;;;;;;;0.80;0.50;;;;;;;;;;4988431;28;20089;-71
2022/11/18 05:44:27;;;;;;;1.55;0.90;;;;;;;;;;4992318;28;20120;-71
2022/11/18 05:46:54;;;;;;;1.85;1.10;;;;;;;;;;4992216;28;20089;-71
2022/11/18 05:49:21;;;;;;;1.13;0.80;;;;;;;;;;4983705;28;20078;-71
2022/11/18 05:51:47;;;;;;;0.88;0.40;;;;;;;;;;4974843;28;20059;-70
2022/11/18 05:54:16;;;;;;;1.00;0.57;;;;;;;;;;4991882;28;20509;-69
2022/11/18 05:56:45;;;;;;;1.48;0.82;;;;;;;;;;4992168;28;20090;-71
2022/11/18 05:59:15;;;;;;;5.95;0.40;;;;;;;;;;4991533;28;20497;-71
2022/11/18 06:01:47;;;;;;;2.70;0.40;;;;;;;;;;4992002;28;20054;-70
2022/11/18 06:04:19;;;;;;;0.50;0.50;;;;;;;;;;4991388;28;20109;-70
2022/11/18 06:06:47;;;;;;;0.80;0.55;;;;;;;;;;4992309;28;20482;-71
2022/11/18 06:09:14;;;;;;;1.85;0.50;;;;;;;;;;4994843;28;20090;-71
2022/11/18 06:11:43;;;;;;;1.42;0.50;;;;;;;;;;4995398;28;20480;-70
2022/11/18 06:14:20;;;;;;;0.73;0.73;;;;;;;;;;4994646;28;20408;-70
2022/11/18 06:16:49;;;;;;;1.48;0.57;;;;;;;;;;4994163;28;20119;-70
2022/11/18 06:19:16;;;;;;;0.60;0.60;;;;;;;;;;4977546;28;20094;-70
2022/11/18 06:21:44;;;;;;;0.60;0.60;;;;;;;;;;4994138;28;20615;-71
2022/11/18 06:24:11;;;;;;;0.90;0.50;;;;;;;;;;4994256;28;20416;-70
2022/11/18 06:26:37;;;;;;;0.47;0.43;;;;;;;;;;4995088;28;20046;-70
2022/11/18 06:29:04;;;;;;;0.98;0.50;;;;;;;;;;4989093;28;20055;-71
2022/11/18 06:31:31;;;;;;;0.90;0.65;;;;;;;;;;4983542;28;20751;-70
2022/11/18 06:33:59;;;;;;;1.38;0.70;;;;;;;;;;4980110;28;20509;-71
2022/11/18 06:36:26;;;;;;;1.00;0.80;;;;;;;;;;4974925;28;20436;-70
2022/11/18 06:38:53;;;;;;;1.15;0.60;;;;;;;;;;4975194;28;20062;-71
2022/11/18 06:41:20;;;;;;;1.20;0.80;;;;;;;;;;4985320;28;20109;-70
2022/11/18 06:43:47;;;;;;;1.02;0.70;;;;;;;;;;4994681;28;20556;-70
2022/11/18 06:49:01;;;;;;;1.75;0.80;;;;;;;;;;4994153;28;20089;-70
2022/11/18 06:51:28;;;;;;;2.15;1.10;;;;;;;;;;4994760;28;20173;-70
2022/11/18 06:53:55;;;;;;;0.95;0.70;;;;;;;;;;4994494;28;20085;-71
2022/11/18 06:56:22;;;;;;;1.50;0.75;;;;;;;;;;4994583;28;20088;-71
2022/11/18 06:58:55;;;;;;;2.10;0.40;;;;;;;;;;4976921;28;20109;-70
2022/11/18 07:01:26;;;;;;;0.57;0.50;;;;;;;;;;4975324;28;20062;-70
2022/11/18 07:03:53;;;;;;;0.88;0.50;;;;;;;;;;4975088;28;20134;-71
2022/11/18 07:06:22;;;;;;;1.30;0.40;;;;;;;;;;4975040;28;20086;-71
2022/11/18 07:08:49;;;;;;;1.58;0.50;;;;;;;;;;4974100;28;20477;-69
2022/11/18 07:11:18;;;;;;;0.68;0.40;;;;;;;;;;4981062;28;20563;-70
2022/11/18 07:13:45;;;;;;;1.60;0.40;;;;;;;;;;4991367;28;20042;-69
2022/11/18 07:16:14;;;;;;;0.45;0.30;;;;;;;;;;4992046;28;20128;-70
2022/11/18 07:18:41;;;;;;;2.90;0.70;;;;;;;;;;4991359;28;20054;-72
2022/11/18 07:21:19;;;;;;;3.28;1.52;;;;;;;;;;4992079;28;20054;-70
2022/11/18 07:23:46;;;;;;;3.13;1.85;;;;;;;;;;4992013;28;20046;-69
2022/11/18 07:26:13;;;;;;;2.88;1.38;;;;;;;;;;4991653;28;20105;-69
2022/11/18 07:28:39;;;;;;;2.75;1.35;;;;;;;;;;4991544;28;20189;-71
2022/11/18 07:31:11;;;;;;;2.90;1.23;;;;;;;;;;4990691;28;20050;-71
2022/11/18 07:33:38;;;;;;;2.95;1.20;;;;;;;;;;4990496;28;20086;-70
2022/11/18 07:36:09;;;;;;;3.35;0.95;;;;;;;;;;4991957;28;20133;-71
2022/11/18 07:38:36;;;;;;;3.05;1.33;;;;;;;;;;4990833;28;20656;-71
2022/11/18 07:41:12;;;;;;;2.72;1.30;;;;;;;;;;4991651;28;20097;-70
2022/11/18 07:43:39;;;;;;;3.33;1.45;;;;;;;;;;4991675;28;20085;-70
2022/11/18 07:46:10;;;;;;;3.97;1.33;;;;;;;;;;4991554;28;20078;-69
2022/11/18 07:48:37;;;;;;;2.50;1.10;;;;;;;;;;4991116;28;20514;-71
2022/11/18 07:51:04;;;;;;;2.97;1.38;;;;;;;;;;4990905;28;20597;-70
2022/11/18 07:53:31;;;;;;;11.95;2.55;;;;;;;;;;4991290;28;20452;-70
2022/11/18 07:55:58;;;;;;;3.20;1.92;;;;;;;;;;4991473;28;20129;-70
2022/11/18 07:58:24;;;;;;;10.32;8.38;;;;;;;;;;4990811;28;20513;-70
2022/11/18 08:00:51;;;;;;;7.07;4.47;;;;;;;;;;4991232;28;20137;-70
2022/11/18 08:03:17;;;;;;;6.10;1.98;;;;;;;;;;4988767;28;20124;-70
2022/11/18 08:05:44;;;;;;;2.55;1.40;;;;;;;;;;4985814;28;20058;-70
2022/11/18 08:08:11;;;;;;;2.13;1.10;;;;;;;;;;4991488;28;20051;-71
2022/11/18 08:10:37;;;;;;;4.95;1.60;;;;;;;;;;4979033;28;20106;-70
2022/11/18 08:13:04;;;;;;;2.13;1.20;;;;;;;;;;4978595;28;20082;-69
2022/11/18 08:15:30;;;;;;;2.97;1.52;;;;;;;;;;4988581;28;20729;-70
2022/11/18 08:17:57;;;;;;;1.38;0.90;;;;;;;;;;4990224;28;20081;-71
2022/11/18 08:20:26;;;;;;;1.40;1.30;;;;;;;;;;4991018;28;20140;-69
2022/11/18 08:22:52;;;;;;;1.13;0.90;;;;;;;;;;4991161;28;20093;-68
2022/11/18 08:25:19;;;;;;;1.23;1.05;;;;;;;;;;4991280;28;20089;-72
2022/11/18 08:27:45;;;;;;;2.00;1.10;;;;;;;;;;4991148;28;20410;-70
2022/11/18 08:30:12;;;;;;;1.48;1.13;;;;;;;;;;4990177;28;20595;-70
2022/11/18 08:32:39;;;;;;;7.32;3.45;;;;;;;;;;4990433;28;20133;-70
2022/11/18 08:35:06;;;;;;;1.88;1.20;;;;;;;;;;4991245;28;20196;-72
2022/11/18 08:37:36;;;;;;;2.78;1.50;;;;;;;;;;4991015;28;20096;-68
2022/11/18 08:40:03;;;;;;;3.78;1.58;;;;;;;;;;4990222;28;20100;-70
2022/11/18 08:42:30;;;;;;;4.30;1.67;;;;;;;;;;4990271;28;20500;-69
2022/11/18 08:45:00;;;;;;;2.00;1.30;;;;;;;;;;4990984;28;20047;-71
2022/11/18 08:47:26;;;;;;;1.67;1.27;;;;;;;;;;4987608;28;20122;-70
2022/11/18 08:49:53;;;;;;;3.33;1.60;;;;;;;;;;4977782;28;20093;-69
2022/11/18 08:52:19;;;;;;;3.67;2.22;;;;;;;;;;4980685;28;20082;-69
2022/11/18 08:54:46;;;;;;;3.55;1.45;;;;;;;;;;4987909;28;20508;-70
2022/11/18 08:57:13;;;;;;;3.35;1.50;;;;;;;;;;4990592;28;20058;-70
2022/11/18 08:59:40;;;;;;;2.42;1.38;;;;;;;;;;4989824;28;20058;-69
2022/11/18 09:02:13;;;;;;;4.80;1.60;;;;;;;;;;4991192;28;20056;-70
2022/11/18 09:04:40;;;;;;;4.82;2.45;;;;;;;;;;4973902;28;20062;-71
2022/11/18 09:07:07;;;;;;;3.55;2.25;;;;;;;;;;4990985;28;20050;-70
2022/11/18 09:09:34;;;;;;;7.65;2.40;;;;;;;;;;4989893;28;20142;-70
2022/11/18 09:12:00;;;;;;;2.40;1.63;;;;;;;;;;4990871;28;20460;-71
2022/11/18 09:14:27;;;;;;;2.92;1.33;;;;;;;;;;4989053;28;20584;-71
2022/11/18 09:17:14;;;;;;;4.43;2.00;;;;;;;;;;4990236;28;20050;-69
2022/11/18 09:19:40;;;;;;;3.85;1.90;;;;;;;;;;4989934;28;20132;-69
2022/11/18 09:22:14;;;;;;;1.83;1.20;;;;;;;;;;4989984;28;20050;-69
2022/11/18 09:24:42;;;;;;;4.72;1.00;;;;;;;;;;4990591;28;20097;-68
2022/11/18 09:27:08;;;;;;;2.30;1.20;;;;;;;;;;4990598;28;20089;-68
2022/11/18 09:29:42;;;;;;;1.40;0.85;;;;;;;;;;4990234;28;20417;-68
2022/11/18 09:32:09;;;;;;;2.15;1.35;;;;;;;;;;4992164;28;20489;-69
2022/11/18 09:34:35;;;;;;;1.85;0.80;;;;;;;;;;4992010;28;20082;-69
2022/11/18 09:37:05;;;;;;;1.77;1.02;;;;;;;;;;4992089;28;20089;-68
2022/11/18 09:39:35;;;;;;;3.60;1.50;;;;;;;;;;4991780;28;20054;-69
2022/11/18 09:42:25;;;;;;;3.67;2.00;;;;;;;;;;4994775;28;20050;-70
2022/11/18 09:44:55;;;;;;;1.40;1.00;;;;;;;;;;4994603;28;20046;-71
2022/11/18 09:47:21;;;;;;;2.92;1.42;;;;;;;;;;4996108;28;20101;-70
2022/11/18 09:49:48;;;;;;;2.15;1.50;;;;;;;;;;4995242;28;20066;-70
2022/11/18 09:52:19;;;;;;;2.78;1.98;;;;;;;;;;4978586;28;20133;-70
2022/11/18 09:54:46;;;;;;;5.95;2.58;;;;;;;;;;4995797;28;20046;-69
2022/11/18 09:57:13;;;;;;;5.38;1.23;;;;;;;;;;4994779;28;20050;-69
2022/11/18 09:59:40;;;;;;;3.00;1.30;;;;;;;;;;4994234;28;20406;-69
2022/11/18 10:02:27;;;;;;;3.88;2.30;;;;;;;;;;4976174;28;20081;-69
2022/11/18 10:04:55;;;;;;;13.40;6.68;;;;;;;;;;4988656;28;20050;-72
2022/11/18 10:07:31;;;;;;;2.53;1.92;;;;;;;;;;4974934;28;20572;-70
2022/11/18 10:09:58;;;;;;;1.90;1.20;;;;;;;;;;4973192;28;20054;-69
2022/11/18 10:12:28;;;;;;;2.47;1.38;;;;;;;;;;4956542;28;20548;-69
2022/11/18 10:15:22;;;;;;;5.43;1.77;;;;;;;;;;4993672;28;20089;-71
2022/11/18 10:18:01;;;;;;;2.55;1.30;;;;;;;;;;4992343;28;20055;-70
2022/11/18 10:20:50;;;;;;;3.50;1.63;;;;;;;;;;4993576;28;20081;-69
2022/11/18 10:23:28;;;;;;;4.47;1.88;;;;;;;;;;4993018;28;20501;-70
2022/11/18 10:25:55;;;;;;;2.50;1.77;;;;;;;;;;4977042;28;20101;-67
2022/11/18 10:28:28;;;;;;;4.95;1.55;;;;;;;;;;4993117;28;20050;-69
2022/11/18 10:31:14;;;;;;;2.78;1.10;;;;;;;;;;4985196;28;20117;-73
2022/11/18 10:33:41;;;;;;;1.65;1.08;;;;;;;;;;5020054;22;20474;-68
2022/11/18 10:36:10;;;;;;;3.75;1.40;;;;;;;;;;4977453;28;20050;-69
2022/11/18 10:38:36;;;;;;;4.65;1.70;;;;;;;;;;4991856;28;20092;-69
2022/11/18 10:41:14;;;;;;;5.40;1.42;;;;;;;;;;4977881;28;20058;-69
2022/11/18 10:43:58;;;;;;;3.75;1.63;;;;;;;;;;4997923;23;20443;-75
2022/11/18 10:46:38;;;;;;;4.55;1.35;;;;;;;;;;5007492;28;20508;-74
2022/11/18 10:49:07;;;;;;;3.95;1.35;;;;;;;;;;5020284;28;20091;-71
2022/11/18 10:51:35;;;;;;;2.88;1.20;;;;;;;;;;5022746;28;20076;-71
2022/11/18 10:54:14;;;;;;;1.50;1.08;;;;;;;;;;4995937;28;20520;-74
2022/11/18 10:57:02;;;;;;;1.15;1.02;;;;;;;;;;4985338;28;20101;-73
2022/11/18 10:59:31;;;;;;;2.58;1.75;;;;;;;;;;5026062;28;20121;-75
2022/11/18 11:02:11;;;;;;;3.25;2.30;;;;;;;;;;5030164;28;20041;-73
2022/11/18 11:04:38;;;;;;;2.08;1.80;;;;;;;;;;5010221;28;20073;-75
2022/11/18 11:07:43;;;;;;;2.60;1.60;;;;;;;;;;5030101;28;20060;-73
2022/11/18 11:10:10;;;;;;;2.95;2.00;;;;;;;;;;4946238;28;20050;-72
2022/11/18 11:12:50;;;;;;;5.40;1.90;;;;;;;;;;4961183;28;20098;-71
2022/11/18 11:15:22;;;;;;;2.72;2.28;;;;;;;;;;4992078;28;20069;-71
2022/11/18 11:20:45;;;;;;;2.05;1.73;;;;;;;;;;5014449;28;20103;-72
2022/11/18 11:23:13;;;;;;;2.45;1.70;;;;;;;;;;5029356;28;20048;-70
2022/11/18 11:25:53;;;;;;;3.35;1.88;;;;;;;;;;5013872;28;20084;-69
2022/11/18 11:29:01;;;;;;;3.58;1.88;;;;;;;;;;5028493;28;20053;-69
2022/11/18 11:32:19;;;;;;;2.53;1.80;;;;;;;;;;5028434;28;20053;-68
2022/11/18 11:34:49;;;;;;;2.58;1.38;;;;;;;;;;4995210;28;20057;-70
2022/11/18 11:37:48;;;;;;;2.25;1.40;;;;;;;;;;5030665;28;20049;-67
2022/11/18 11:40:35;;;;;;;3.63;1.40;;;;;;;;;;5029148;28;20080;-71
2022/11/18 11:43:25;;;;;;;2.08;1.40;;;;;;;;;;5029125;28;20057;-70
2022/11/18 11:46:07;;;;;;;2.45;1.20;;;;;;;;;;5026783;28;20073;-69
2022/11/18 11:49:09;;;;;;;2.10;1.23;;;;;;;;;;5029439;28;20405;-69
2022/11/18 11:51:43;;;;;;;1.95;1.40;;;;;;;;;;5015346;28;20073;-69
2022/11/18 11:54:14;;;;;;;1.95;1.50;;;;;;;;;;5029420;28;20049;-68
2022/11/18 11:56:54;;;;;;;5.70;2.85;;;;;;;;;;5028058;28;20042;-74
2022/11/18 11:59:21;;;;;;;6.25;2.88;;;;;;;;;;5003163;28;20045;-72
2022/11/18 12:01:57;;;;;;;3.17;1.15;;;;;;;;;;5029802;28;20057;-71
2022/11/18 12:04:24;;;;;;;2.22;1.30;;;;;;;;;;5029001;28;20088;-73
2022/11/18 12:06:52;;;;;;;2.85;1.50;;;;;;;;;;5029227;28;20053;-67
2022/11/18 12:09:30;;;;;;;2.15;1.02;;;;;;;;;;5008489;28;20057;-68
2022/11/18 12:12:03;;;;;;;3.50;1.52;;;;;;;;;;5028014;28;20511;-70
2022/11/18 12:14:53;;;;;;;1.40;1.10;;;;;;;;;;5028573;28;20068;-71
2022/11/18 12:17:29;;;;;;;1.83;1.50;;;;;;;;;;5026765;28;20069;-70
2022/11/18 12:19:56;;;;;;;2.63;1.55;;;;;;;;;;5011881;28;20684;-71
2022/11/18 12:22:23;;;;;;;1.40;0.70;;;;;;;;;;5028768;28;20111;-71
2022/11/18 12:24:49;;;;;;;1.52;0.90;;;;;;;;;;5028514;28;20120;-71
2022/11/18 12:27:22;;;;;;;1.42;1.08;;;;;;;;;;5027181;28;20103;-71
2022/11/18 12:29:52;;;;;;;8.18;2.75;;;;;;;;;;5028752;28;20107;-71
2022/11/18 12:32:30;;;;;;;4.63;2.35;;;;;;;;;;5028585;28;20041;-70
2022/11/18 12:35:11;;;;;;;4.93;2.20;;;;;;;;;;5030005;28;20057;-70
2022/11/18 12:38:11;;;;;;;6.18;2.78;;;;;;;;;;5027610;28;20144;-78
2022/11/18 12:40:38;;;;;;;5.28;2.03;;;;;;;;;;5030068;28;20111;-71
2022/11/18 12:45:56;;;;;;;4.18;1.00;;;;;;;;;;5014041;28;20054;-69
2022/11/18 12:48:23;;;;;;;2.15;1.52;;;;;;;;;;5010701;28;20586;-67
2022/11/18 12:50:54;;;;;;;3.38;1.02;;;;;;;;;;5025647;28;20061;-67
2022/11/18 12:53:35;;;;;;;2.90;1.00;;;;;;;;;;5028206;28;20077;-67
2022/11/18 12:56:17;;;;;;;6.22;3.15;;;;;;;;;;5023901;28;20475;-71
2022/11/18 12:58:48;;;;;;;5.28;2.25;;;;;;;;;;5024952;28;20045;-69
2022/11/18 13:01:17;;;;;;;2.17;1.33;;;;;;;;;;5028999;28;20118;-68
2022/11/18 13:03:44;;;;;;;3.33;0.90;;;;;;;;;;5028151;28;20060;-69
2022/11/18 13:06:27;;;;;;;2.65;1.13;;;;;;;;;;5011513;28;20077;-69
2022/11/18 13:08:57;;;;;;;1.35;0.70;;;;;;;;;;5004004;28;20085;-70
2022/11/18 13:11:44;;;;;;;1.38;0.90;;;;;;;;;;5027643;28;20504;-69
2022/11/18 13:20:19;;;;;;;3.30;1.70;;;;;;;;;;5030775;28;20100;-67
2022/11/18 13:25:41;;;;;;;6.90;1.40;;;;;;;;;;5033082;28;20103;-66
2022/11/18 13:28:15;;;;;;;5.05;1.85;;;;;;;;;;5031806;28;20057;-67
2022/11/18 13:31:07;;;;;;;4.68;1.55;;;;;;;;;;5032365;28;20045;-67
2022/11/18 13:33:35;;;;;;;3.95;1.40;;;;;;;;;;5007539;28;20053;-66
2022/11/18 13:36:01;;;;;;;2.05;1.23;;;;;;;;;;5016236;28;20478;-66
2022/11/18 13:38:28;;;;;;;2.78;1.15;;;;;;;;;;5033602;28;20049;-66
2022/11/18 13:41:05;;;;;;;2.35;0.82;;;;;;;;;;5032960;28;20155;-67
2022/11/18 13:43:33;;;;;;;3.38;1.10;;;;;;;;;;5033783;28;20045;-66
2022/11/18 13:46:09;;;;;;;2.30;1.65;;;;;;;;;;5029064;28;20080;-66
2022/11/18 13:48:36;;;;;;;4.18;1.45;;;;;;;;;;5010206;28;20467;-66
2022/11/18 13:51:03;;;;;;;2.85;1.45;;;;;;;;;;5016051;28;20526;-66
2022/11/18 13:53:30;;;;;;;1.30;0.70;;;;;;;;;;5031689;28;20049;-66
2022/11/18 13:56:19;;;;;;;3.08;1.27;;;;;;;;;;5032021;28;20463;-67
2022/11/18 13:58:48;;;;;;;2.35;1.08;;;;;;;;;;5014763;28;20119;-67
2022/11/18 14:01:35;;;;;;;2.53;1.20;;;;;;;;;;5030822;28;20099;-67
2022/11/18 14:04:03;;;;;;;3.63;0.98;;;;;;;;;;5016226;28;20180;-66
2022/11/18 14:06:38;;;;;;;2.42;1.00;;;;;;;;;;5032137;28;20069;-66
2022/11/18 14:09:05;;;;;;;1.80;1.20;;;;;;;;;;5003032;28;20527;-67
2022/11/18 14:11:43;;;;;;;3.55;1.60;;;;;;;;;;5031205;28;20095;-67
2022/11/18 14:14:13;;;;;;;3.00;1.08;;;;;;;;;;5028047;28;20099;-69
2022/11/18 14:16:40;;;;;;;4.03;0.95;;;;;;;;;;5014842;28;20492;-71
2022/11/18 14:19:25;;;;;;;2.25;1.00;;;;;;;;;;5012620;28;20103;-71
2022/11/18 14:21:52;;;;;;;4.15;1.38;;;;;;;;;;5015919;28;20050;-71
2022/11/18 14:24:25;;;;;;;4.15;1.40;;;;;;;;;;4997774;28;20093;-73
2022/11/18 14:26:52;;;;;;;1.98;1.08;;;;;;;;;;5013544;28;20107;-69
2022/11/18 14:29:21;;;;;;;3.13;0.90;;;;;;;;;;5029884;28;20050;-70
2022/11/18 14:32:15;;;;;;;2.90;1.30;;;;;;;;;;5020302;28;20080;-69
2022/11/18 14:34:42;;;;;;;;;;;;;;;;;;5029655;28;20045;-69
2022/11/18 14:37:12;;;;;;;5.10;1.30;;;;;;;;;;5030992;28;20265;-70
2022/11/18 14:39:39;;;;;;;3.63;1.67;;;;;;;;;;5029883;28;20073;-69
2022/11/18 14:42:12;;;;;;;3.00;1.75;;;;;;;;;;5010945;28;20565;-69
2022/11/18 14:44:39;;;;;;;6.43;1.67;;;;;;;;;;5032672;28;20049;-68
2022/11/18 14:47:22;;;;;;;1.65;1.10;;;;;;;;;;5030237;28;20053;-67
2022/11/18 14:49:48;;;;;;;3.08;1.02;;;;;;;;;;5004482;28;20054;-70
2022/11/18 14:52:15;;;;;;;5.70;1.30;;;;;;;;;;5030902;28;20053;-69
2022/11/18 14:54:42;;;;;;;6.45;1.48;;;;;;;;;;5013422;28;20099;-70
2022/11/18 14:57:10;;;;;;;4.05;1.50;;;;;;;;;;5031550;28;20099;-70
2022/11/18 14:59:36;;;;;;;3.00;1.17;;;;;;;;;;5012776;28;20084;-72
2022/11/18 15:02:03;;;;;;;3.97;1.80;;;;;;;;;;5027625;28;20053;-71
2022/11/18 15:04:30;;;;;;;3.15;1.85;;;;;;;;;;5030051;28;20050;-72
2022/11/18 15:06:56;;;;;;;2.88;1.58;;;;;;;;;;5031451;28;20071;-71
2022/11/18 15:09:23;;;;;;;2.95;1.95;;;;;;;;;;5030391;28;20053;-72
2022/11/18 15:11:50;;;;;;;7.40;1.80;;;;;;;;;;5031209;28;20053;-71
2022/11/18 15:14:16;;;;;;;4.05;1.35;;;;;;;;;;5012499;28;20050;-71
2022/11/18 15:16:43;;;;;;;4.00;2.15;;;;;;;;;;5012709;28;20053;-71
2022/11/18 15:19:13;;;;;;;3.63;1.65;;;;;;;;;;4978656;28;20420;-70
2022/11/18 15:21:40;;;;;;;3.35;2.28;;;;;;;;;;5010550;28;20049;-71
2022/11/18 15:24:07;;;;;;;5.57;2.65;;;;;;;;;;5011139;28;20080;-71
2022/11/18 15:26:36;;;;;;;3.45;1.90;;;;;;;;;;5012459;28;20096;-71
2022/11/18 15:29:03;;;;;;;4.88;1.88;;;;;;;;;;4995145;28;20077;-71
2022/11/18 15:31:29;;;;;;;3.55;2.10;;;;;;;;;;4994754;28;20056;-71
2022/11/18 15:33:57;;;;;;;5.40;2.10;;;;;;;;;;5011318;28;20054;-71